Mingo, West Virginia
Current Conditions -  °F | °C
As of 2:51 AM on Thursday 18 Dec 2014 (Local Time) from KEKN Reporting Station
Overcast Overcast  
Wind Chill: -7°   Ceiling: 1700
Heat Index: -2°   Visibility: 10mi
Dew Point: -6°   Wind: 9mph
Humidity: 78%   Direction: 310°NW
Pressure: 30.13"   Gusts: NA
Location:  38.5201°N, 80.0382°W
Report Text: KEKN 180751Z AUTO 31008KT 10SM OVC017 M02/M06 A3013 RMK AO2 SLP229 T10221056 TSNO
Loading
Personal Weather Stations






























Interactive Weather Map New forecast layout! Learn more

10-Day Weather Forecast

Advertisements
Track Severe Weather on mobile